Meteorological Aerodrome Report (METAR)

METAR

Data at: 1700 UTC 24 Jul 2021

METAR for:NVSC (Sola/Vanua Lava Arpt, TO, NV)
Text:NVSC 241500Z 00000KT 9999 BKN020 26/26 Q1011
Temperature: 26.0°C ( 79°F)
Dewpoint: 26.0°C ( 79°F) [RH = 100%]
Pressure (altimeter):29.85 inches Hg (1011.0 mb)
Winds:calm
Visibility:6 or more sm (10+ km)
Ceiling:2000 feet AGL
Clouds: broken clouds at 2000 feet AGL

METAR

Data at: 1700 UTC 24 Jul 2021

METAR for:NVSG (Longana Arpt, PA, NV)
Text:No data found

METAR

Data at: 1700 UTC 24 Jul 2021

METAR for:NVSS (Santo/Pekoa Intl, SA, NV)
Text:NVSS 241500Z 30002KT 9999 SCT025 23/23 Q1012
Temperature: 23.0°C ( 73°F)
Dewpoint: 23.0°C ( 73°F) [RH = 100%]
Pressure (altimeter):29.88 inches Hg (1012.0 mb)
Winds:from the WNW (300 degrees) at 2 MPH (2 knots; 1.0 m/s)
Visibility:6 or more sm (10+ km)
Ceiling:at least 12,000 feet AGL
Clouds: scattered clouds at 2500 feet AGL

METAR

Data at: 1700 UTC 24 Jul 2021

METAR for:NVSL (Malekula Isl/Lamap, MA, NV)
Text:No data found

METAR

Data at: 1700 UTC 24 Jul 2021

METAR for:NVSP (Norsup Arpt, MA, NV)
Text:No data found

METAR

Data at: 1700 UTC 24 Jul 2021

METAR for:NVVV (Efate/Bauerfield Int, SE, NV)
Text:NVVV 241500Z 00000KT 9999 FEW020 BKN045 23/23 Q1013
Temperature: 23.0°C ( 73°F)
Dewpoint: 23.0°C ( 73°F) [RH = 100%]
Pressure (altimeter):29.91 inches Hg (1013.0 mb)
Winds:calm
Visibility:6 or more sm (10+ km)
Ceiling:4500 feet AGL
Clouds: few clouds at 2000 feet AGL, broken clouds at 4500 feet AGL

METAR

Data at: 1700 UTC 24 Jul 2021

METAR for:NVVW (Tanna Arpt, TA, NV)
Text:No data found

METAR

Data at: 1700 UTC 24 Jul 2021

METAR for:NVVA (Aneityum/Mystery Isl, TA, NV)
Text:NVVA 241200Z VRB02KT 9999 FEW015 SCT020 BKN040 22/22 Q1015
Temperature: 22.0°C ( 72°F)
Dewpoint: 22.0°C ( 72°F) [RH = 100%]
Pressure (altimeter):29.97 inches Hg (1015.0 mb)
Winds:variable direction winds at 2 MPH (2 knots; 1.0 m/s)
Visibility:6 or more sm (10+ km)
Ceiling:4000 feet AGL
Clouds: few clouds at 1500 feet AGL, scattered clouds at 2000 feet AGL, broken clouds at 4000 feet AGL

METAR

Data at: 1700 UTC 24 Jul 2021

NVVV 241500Z 00000KT 9999 FEW020 BKN045 23/23 Q1013
NVSC 241500Z 00000KT 9999 BKN020 26/26 Q1011
No Data available for NVSG
NVSS 241500Z 30002KT 9999 SCT025 23/23 Q1012
No Data available for NVSL
No Data available for NVSP
No Data available for NVVW
NVVA 241200Z VRB02KT 9999 FEW015 SCT020 BKN040 22/22 Q1015